sensor_id;sensor_type;location;lat;lon;timestamp;P1;durP1;ratioP1;P2;durP2;ratioP2
25905;SDS011;13713;52.552;13.204;2023-06-22T00:02:16;29.42;;;21.98;;
25905;SDS011;13713;52.552;13.204;2023-06-22T00:04:42;30.23;;;23.08;;
25905;SDS011;13713;52.552;13.204;2023-06-22T00:07:08;29.65;;;23.10;;
25905;SDS011;13713;52.552;13.204;2023-06-22T00:09:34;29.00;;;22.65;;
25905;SDS011;13713;52.552;13.204;2023-06-22T00:11:59;31.23;;;23.35;;
25905;SDS011;13713;52.552;13.204;2023-06-22T00:14:26;29.55;;;23.00;;
25905;SDS011;13713;52.552;13.204;2023-06-22T00:16:51;27.70;;;22.23;;
25905;SDS011;13713;52.552;13.204;2023-06-22T00:19:22;30.10;;;22.13;;
25905;SDS011;13713;52.552;13.204;2023-06-22T00:21:48;27.73;;;21.55;;
25905;SDS011;13713;52.552;13.204;2023-06-22T00:24:18;31.63;;;23.83;;
25905;SDS011;13713;52.552;13.204;2023-06-22T00:26:45;28.38;;;21.70;;
25905;SDS011;13713;52.552;13.204;2023-06-22T00:29:11;30.23;;;22.67;;
25905;SDS011;13713;52.552;13.204;2023-06-22T00:31:36;31.85;;;23.33;;
25905;SDS011;13713;52.552;13.204;2023-06-22T00:34:02;29.92;;;23.20;;
25905;SDS011;13713;52.552;13.204;2023-06-22T00:36:28;28.77;;;22.30;;
25905;SDS011;13713;52.552;13.204;2023-06-22T00:38:53;29.20;;;22.00;;
25905;SDS011;13713;52.552;13.204;2023-06-22T00:41:19;29.55;;;22.70;;
25905;SDS011;13713;52.552;13.204;2023-06-22T00:43:45;29.67;;;22.52;;
25905;SDS011;13713;52.552;13.204;2023-06-22T00:46:11;28.23;;;22.40;;
25905;SDS011;13713;52.552;13.204;2023-06-22T00:48:37;28.33;;;21.58;;
25905;SDS011;13713;52.552;13.204;2023-06-22T00:51:05;29.10;;;22.63;;
25905;SDS011;13713;52.552;13.204;2023-06-22T00:53:30;28.77;;;23.05;;
25905;SDS011;13713;52.552;13.204;2023-06-22T00:55:59;29.10;;;22.45;;
25905;SDS011;13713;52.552;13.204;2023-06-22T00:58:26;27.20;;;21.30;;
25905;SDS011;13713;52.552;13.204;2023-06-22T01:00:52;26.63;;;21.17;;
25905;SDS011;13713;52.552;13.204;2023-06-22T01:03:18;28.05;;;22.35;;
25905;SDS011;13713;52.552;13.204;2023-06-22T01:05:45;30.83;;;23.20;;
25905;SDS011;13713;52.552;13.204;2023-06-22T01:08:31;29.70;;;22.55;;
25905;SDS011;13713;52.552;13.204;2023-06-22T01:13:56;29.02;;;22.77;;
25905;SDS011;13713;52.552;13.204;2023-06-22T01:16:31;28.30;;;22.02;;
25905;SDS011;13713;52.552;13.204;2023-06-22T01:21:43;29.02;;;22.40;;
25905;SDS011;13713;52.552;13.204;2023-06-22T01:29:39;28.48;;;21.70;;
25905;SDS011;13713;52.552;13.204;2023-06-22T01:32:08;27.02;;;21.33;;
25905;SDS011;13713;52.552;13.204;2023-06-22T01:34:36;27.35;;;21.27;;
25905;SDS011;13713;52.552;13.204;2023-06-22T01:37:05;28.50;;;21.73;;
25905;SDS011;13713;52.552;13.204;2023-06-22T01:39:32;27.35;;;22.42;;
25905;SDS011;13713;52.552;13.204;2023-06-22T01:41:59;28.15;;;22.33;;
25905;SDS011;13713;52.552;13.204;2023-06-22T01:44:25;28.65;;;21.80;;
25905;SDS011;13713;52.552;13.204;2023-06-22T01:46:52;29.17;;;22.73;;
25905;SDS011;13713;52.552;13.204;2023-06-22T01:49:18;27.30;;;20.77;;
25905;SDS011;13713;52.552;13.204;2023-06-22T01:51:44;28.42;;;22.27;;
25905;SDS011;13713;52.552;13.204;2023-06-22T01:54:09;29.08;;;22.38;;
25905;SDS011;13713;52.552;13.204;2023-06-22T01:56:35;27.45;;;21.38;;
25905;SDS011;13713;52.552;13.204;2023-06-22T01:59:09;28.73;;;21.65;;
25905;SDS011;13713;52.552;13.204;2023-06-22T02:01:43;29.05;;;20.88;;
25905;SDS011;13713;52.552;13.204;2023-06-22T02:04:25;28.42;;;21.95;;
25905;SDS011;13713;52.552;13.204;2023-06-22T02:06:55;27.45;;;21.60;;
25905;SDS011;13713;52.552;13.204;2023-06-22T02:09:23;26.83;;;21.25;;
25905;SDS011;13713;52.552;13.204;2023-06-22T02:11:54;26.75;;;21.35;;
25905;SDS011;13713;52.552;13.204;2023-06-22T02:14:22;28.10;;;22.27;;
25905;SDS011;13713;52.552;13.204;2023-06-22T02:16:49;27.40;;;21.90;;
25905;SDS011;13713;52.552;13.204;2023-06-22T02:19:16;28.48;;;21.95;;
25905;SDS011;13713;52.552;13.204;2023-06-22T02:21:44;29.45;;;22.83;;
25905;SDS011;13713;52.552;13.204;2023-06-22T02:24:12;27.67;;;21.50;;
25905;SDS011;13713;52.552;13.204;2023-06-22T02:26:37;28.60;;;22.42;;
25905;SDS011;13713;52.552;13.204;2023-06-22T02:29:07;27.15;;;21.85;;
25905;SDS011;13713;52.552;13.204;2023-06-22T02:31:33;27.65;;;21.80;;
25905;SDS011;13713;52.552;13.204;2023-06-22T02:33:59;28.63;;;22.20;;
25905;SDS011;13713;52.552;13.204;2023-06-22T02:36:25;28.20;;;21.60;;
25905;SDS011;13713;52.552;13.204;2023-06-22T02:38:52;28.35;;;22.05;;
25905;SDS011;13713;52.552;13.204;2023-06-22T02:41:22;28.23;;;22.13;;
25905;SDS011;13713;52.552;13.204;2023-06-22T02:43:48;28.25;;;22.17;;
25905;SDS011;13713;52.552;13.204;2023-06-22T02:46:13;29.48;;;22.88;;
25905;SDS011;13713;52.552;13.204;2023-06-22T02:48:40;27.52;;;20.92;;
25905;SDS011;13713;52.552;13.204;2023-06-22T02:51:07;28.98;;;21.92;;
25905;SDS011;13713;52.552;13.204;2023-06-22T02:53:35;28.63;;;21.77;;
25905;SDS011;13713;52.552;13.204;2023-06-22T02:56:04;30.30;;;22.00;;
25905;SDS011;13713;52.552;13.204;2023-06-22T02:58:36;27.80;;;21.45;;
25905;SDS011;13713;52.552;13.204;2023-06-22T03:01:06;27.83;;;21.57;;
25905;SDS011;13713;52.552;13.204;2023-06-22T03:03:33;28.42;;;21.48;;
25905;SDS011;13713;52.552;13.204;2023-06-22T03:05:59;26.35;;;20.90;;
25905;SDS011;13713;52.552;13.204;2023-06-22T03:08:26;27.65;;;22.17;;
25905;SDS011;13713;52.552;13.204;2023-06-22T03:10:53;29.00;;;22.45;;
25905;SDS011;13713;52.552;13.204;2023-06-22T03:13:19;26.95;;;21.52;;
25905;SDS011;13713;52.552;13.204;2023-06-22T03:15:45;28.13;;;22.20;;
25905;SDS011;13713;52.552;13.204;2023-06-22T03:18:11;26.40;;;21.40;;
25905;SDS011;13713;52.552;13.204;2023-06-22T03:20:36;29.77;;;22.17;;
25905;SDS011;13713;52.552;13.204;2023-06-22T03:23:02;27.45;;;21.83;;
25905;SDS011;13713;52.552;13.204;2023-06-22T03:25:32;26.35;;;21.17;;
25905;SDS011;13713;52.552;13.204;2023-06-22T03:28:04;26.67;;;21.08;;
25905;SDS011;13713;52.552;13.204;2023-06-22T03:30:30;28.63;;;22.23;;
25905;SDS011;13713;52.552;13.204;2023-06-22T03:32:59;25.95;;;21.00;;
25905;SDS011;13713;52.552;13.204;2023-06-22T03:35:25;29.50;;;22.90;;
25905;SDS011;13713;52.552;13.204;2023-06-22T03:37:54;28.35;;;22.15;;
25905;SDS011;13713;52.552;13.204;2023-06-22T03:40:20;28.23;;;22.77;;
25905;SDS011;13713;52.552;13.204;2023-06-22T03:42:49;29.15;;;22.20;;
25905;SDS011;13713;52.552;13.204;2023-06-22T03:45:17;28.48;;;22.80;;
25905;SDS011;13713;52.552;13.204;2023-06-22T03:47:49;28.98;;;22.25;;
25905;SDS011;13713;52.552;13.204;2023-06-22T03:50:15;30.42;;;23.05;;
25905;SDS011;13713;52.552;13.204;2023-06-22T03:52:41;27.60;;;21.45;;
25905;SDS011;13713;52.552;13.204;2023-06-22T03:55:07;29.17;;;22.77;;
25905;SDS011;13713;52.552;13.204;2023-06-22T03:57:33;28.75;;;22.60;;
25905;SDS011;13713;52.552;13.204;2023-06-22T04:00:02;26.33;;;21.45;;
25905;SDS011;13713;52.552;13.204;2023-06-22T04:02:37;29.60;;;23.45;;
25905;SDS011;13713;52.552;13.204;2023-06-22T04:05:12;29.30;;;22.77;;
25905;SDS011;13713;52.552;13.204;2023-06-22T04:07:42;29.20;;;22.47;;
25905;SDS011;13713;52.552;13.204;2023-06-22T04:10:08;27.58;;;21.42;;
25905;SDS011;13713;52.552;13.204;2023-06-22T04:12:37;30.45;;;22.48;;
25905;SDS011;13713;52.552;13.204;2023-06-22T04:15:03;29.92;;;23.17;;
25905;SDS011;13713;52.552;13.204;2023-06-22T04:17:34;28.92;;;22.25;;
25905;SDS011;13713;52.552;13.204;2023-06-22T04:20:00;30.20;;;23.52;;
25905;SDS011;13713;52.552;13.204;2023-06-22T04:22:29;28.77;;;22.10;;
25905;SDS011;13713;52.552;13.204;2023-06-22T04:24:55;28.15;;;22.40;;
25905;SDS011;13713;52.552;13.204;2023-06-22T04:27:24;29.65;;;23.38;;
25905;SDS011;13713;52.552;13.204;2023-06-22T04:29:50;29.40;;;22.95;;
25905;SDS011;13713;52.552;13.204;2023-06-22T04:32:16;30.05;;;23.40;;
25905;SDS011;13713;52.552;13.204;2023-06-22T04:34:42;31.30;;;23.63;;
25905;SDS011;13713;52.552;13.204;2023-06-22T04:37:10;29.42;;;22.98;;
25905;SDS011;13713;52.552;13.204;2023-06-22T04:39:41;28.97;;;22.67;;
25905;SDS011;13713;52.552;13.204;2023-06-22T04:42:08;28.42;;;23.27;;
25905;SDS011;13713;52.552;13.204;2023-06-22T04:44:34;31.10;;;23.83;;
25905;SDS011;13713;52.552;13.204;2023-06-22T04:47:02;30.35;;;23.02;;
25905;SDS011;13713;52.552;13.204;2023-06-22T04:49:29;28.67;;;23.17;;
25905;SDS011;13713;52.552;13.204;2023-06-22T04:51:59;30.08;;;23.17;;
25905;SDS011;13713;52.552;13.204;2023-06-22T04:54:25;29.65;;;22.58;;
25905;SDS011;13713;52.552;13.204;2023-06-22T04:56:51;32.78;;;23.67;;
25905;SDS011;13713;52.552;13.204;2023-06-22T04:59:27;32.80;;;23.40;;
25905;SDS011;13713;52.552;13.204;2023-06-22T05:01:58;29.58;;;23.73;;
25905;SDS011;13713;52.552;13.204;2023-06-22T05:04:27;30.15;;;22.92;;
25905;SDS011;13713;52.552;13.204;2023-06-22T05:06:58;29.45;;;24.27;;
25905;SDS011;13713;52.552;13.204;2023-06-22T05:09:28;29.52;;;23.02;;
25905;SDS011;13713;52.552;13.204;2023-06-22T05:11:54;32.20;;;23.98;;
25905;SDS011;13713;52.552;13.204;2023-06-22T05:14:22;33.88;;;24.85;;
25905;SDS011;13713;52.552;13.204;2023-06-22T05:16:48;31.23;;;23.70;;
25905;SDS011;13713;52.552;13.204;2023-06-22T05:19:14;32.15;;;22.90;;
25905;SDS011;13713;52.552;13.204;2023-06-22T05:21:40;30.88;;;23.33;;
25905;SDS011;13713;52.552;13.204;2023-06-22T05:24:06;31.00;;;23.60;;
25905;SDS011;13713;52.552;13.204;2023-06-22T05:26:33;31.20;;;21.92;;
25905;SDS011;13713;52.552;13.204;2023-06-22T05:29:00;31.35;;;22.80;;
25905;SDS011;13713;52.552;13.204;2023-06-22T05:31:27;29.30;;;21.65;;
25905;SDS011;13713;52.552;13.204;2023-06-22T05:33:53;29.75;;;22.17;;
25905;SDS011;13713;52.552;13.204;2023-06-22T05:36:20;29.73;;;22.60;;
25905;SDS011;13713;52.552;13.204;2023-06-22T05:38:50;30.20;;;22.95;;
25905;SDS011;13713;52.552;13.204;2023-06-22T05:41:19;28.15;;;21.52;;
25905;SDS011;13713;52.552;13.204;2023-06-22T05:43:44;29.58;;;22.17;;
25905;SDS011;13713;52.552;13.204;2023-06-22T05:46:10;30.42;;;21.38;;
25905;SDS011;13713;52.552;13.204;2023-06-22T05:48:36;31.42;;;21.88;;
25905;SDS011;13713;52.552;13.204;2023-06-22T05:51:02;30.65;;;22.38;;
25905;SDS011;13713;52.552;13.204;2023-06-22T05:53:27;26.52;;;20.75;;
25905;SDS011;13713;52.552;13.204;2023-06-22T05:55:53;27.75;;;20.27;;
25905;SDS011;13713;52.552;13.204;2023-06-22T05:58:19;29.30;;;20.85;;
25905;SDS011;13713;52.552;13.204;2023-06-22T06:00:44;25.45;;;18.10;;
25905;SDS011;13713;52.552;13.204;2023-06-22T06:03:11;26.83;;;18.45;;
25905;SDS011;13713;52.552;13.204;2023-06-22T06:05:37;24.00;;;18.10;;
25905;SDS011;13713;52.552;13.204;2023-06-22T06:08:04;25.63;;;17.23;;
25905;SDS011;13713;52.552;13.204;2023-06-22T06:10:31;22.40;;;16.30;;
25905;SDS011;13713;52.552;13.204;2023-06-22T06:12:57;25.55;;;15.70;;
25905;SDS011;13713;52.552;13.204;2023-06-22T06:15:24;27.88;;;15.02;;
25905;SDS011;13713;52.552;13.204;2023-06-22T06:17:50;29.42;;;18.50;;
25905;SDS011;13713;52.552;13.204;2023-06-22T06:20:18;23.50;;;17.20;;
25905;SDS011;13713;52.552;13.204;2023-06-22T06:22:45;141.63;;;99.90;;
25905;SDS011;13713;52.552;13.204;2023-06-22T06:25:12;28.08;;;19.25;;
25905;SDS011;13713;52.552;13.204;2023-06-22T06:27:47;25.75;;;15.32;;
25905;SDS011;13713;52.552;13.204;2023-06-22T06:30:15;27.65;;;18.63;;
25905;SDS011;13713;52.552;13.204;2023-06-22T06:32:42;25.55;;;15.68;;
25905;SDS011;13713;52.552;13.204;2023-06-22T06:35:10;37.55;;;25.10;;
25905;SDS011;13713;52.552;13.204;2023-06-22T06:37:41;31.77;;;20.25;;
25905;SDS011;13713;52.552;13.204;2023-06-22T06:40:09;28.40;;;17.27;;
25905;SDS011;13713;52.552;13.204;2023-06-22T06:42:39;23.92;;;16.35;;
25905;SDS011;13713;52.552;13.204;2023-06-22T06:45:13;23.50;;;15.10;;
25905;SDS011;13713;52.552;13.204;2023-06-22T06:47:48;32.33;;;15.93;;
25905;SDS011;13713;52.552;13.204;2023-06-22T06:50:14;52.90;;;40.67;;
25905;SDS011;13713;52.552;13.204;2023-06-22T06:52:40;28.65;;;16.05;;
25905;SDS011;13713;52.552;13.204;2023-06-22T06:55:07;29.02;;;20.40;;
25905;SDS011;13713;52.552;13.204;2023-06-22T06:57:36;22.90;;;14.15;;
25905;SDS011;13713;52.552;13.204;2023-06-22T07:00:05;21.77;;;15.55;;
25905;SDS011;13713;52.552;13.204;2023-06-22T07:02:37;23.63;;;14.23;;
25905;SDS011;13713;52.552;13.204;2023-06-22T07:05:05;21.67;;;14.13;;
25905;SDS011;13713;52.552;13.204;2023-06-22T07:07:31;24.00;;;15.25;;
25905;SDS011;13713;52.552;13.204;2023-06-22T07:09:57;24.48;;;13.25;;
25905;SDS011;13713;52.552;13.204;2023-06-22T07:12:23;21.67;;;13.85;;
25905;SDS011;13713;52.552;13.204;2023-06-22T07:14:49;26.67;;;14.77;;
25905;SDS011;13713;52.552;13.204;2023-06-22T07:17:16;30.33;;;20.23;;
25905;SDS011;13713;52.552;13.204;2023-06-22T07:19:41;28.00;;;15.90;;
25905;SDS011;13713;52.552;13.204;2023-06-22T07:22:07;21.38;;;14.52;;
25905;SDS011;13713;52.552;13.204;2023-06-22T07:24:33;26.70;;;13.93;;
25905;SDS011;13713;52.552;13.204;2023-06-22T07:26:59;26.27;;;16.23;;
25905;SDS011;13713;52.552;13.204;2023-06-22T07:29:25;25.63;;;17.23;;
25905;SDS011;13713;52.552;13.204;2023-06-22T07:31:51;33.05;;;20.40;;
25905;SDS011;13713;52.552;13.204;2023-06-22T07:34:18;35.75;;;18.30;;
25905;SDS011;13713;52.552;13.204;2023-06-22T07:36:44;38.15;;;22.67;;
25905;SDS011;13713;52.552;13.204;2023-06-22T07:39:11;27.42;;;16.80;;
25905;SDS011;13713;52.552;13.204;2023-06-22T07:41:38;24.15;;;15.68;;
25905;SDS011;13713;52.552;13.204;2023-06-22T07:44:04;25.85;;;15.38;;
25905;SDS011;13713;52.552;13.204;2023-06-22T07:46:31;31.52;;;18.63;;
25905;SDS011;13713;52.552;13.204;2023-06-22T07:48:57;26.90;;;16.20;;
25905;SDS011;13713;52.552;13.204;2023-06-22T07:51:24;21.83;;;14.27;;
25905;SDS011;13713;52.552;13.204;2023-06-22T07:53:50;32.72;;;19.67;;
25905;SDS011;13713;52.552;13.204;2023-06-22T07:56:16;28.77;;;15.95;;
25905;SDS011;13713;52.552;13.204;2023-06-22T07:58:45;23.27;;;14.02;;
25905;SDS011;13713;52.552;13.204;2023-06-22T08:01:12;23.30;;;14.73;;
25905;SDS011;13713;52.552;13.204;2023-06-22T08:03:42;24.67;;;14.30;;
25905;SDS011;13713;52.552;13.204;2023-06-22T08:06:08;23.75;;;14.68;;
25905;SDS011;13713;52.552;13.204;2023-06-22T08:08:35;24.77;;;14.93;;
25905;SDS011;13713;52.552;13.204;2023-06-22T08:11:01;27.17;;;15.23;;
25905;SDS011;13713;52.552;13.204;2023-06-22T08:13:27;23.58;;;14.63;;
25905;SDS011;13713;52.552;13.204;2023-06-22T08:15:53;25.70;;;15.93;;
25905;SDS011;13713;52.552;13.204;2023-06-22T08:18:18;21.98;;;15.00;;
25905;SDS011;13713;52.552;13.204;2023-06-22T08:20:44;22.17;;;14.45;;
25905;SDS011;13713;52.552;13.204;2023-06-22T08:23:10;18.98;;;11.93;;
25905;SDS011;13713;52.552;13.204;2023-06-22T08:25:36;25.42;;;15.15;;
25905;SDS011;13713;52.552;13.204;2023-06-22T08:28:02;22.55;;;14.85;;
25905;SDS011;13713;52.552;13.204;2023-06-22T08:30:28;23.88;;;16.00;;
25905;SDS011;13713;52.552;13.204;2023-06-22T08:32:54;26.63;;;17.45;;
25905;SDS011;13713;52.552;13.204;2023-06-22T08:35:21;31.92;;;20.35;;
25905;SDS011;13713;52.552;13.204;2023-06-22T08:37:47;43.15;;;23.80;;
25905;SDS011;13713;52.552;13.204;2023-06-22T08:40:17;32.78;;;19.02;;
25905;SDS011;13713;52.552;13.204;2023-06-22T08:42:44;25.70;;;16.77;;
25905;SDS011;13713;52.552;13.204;2023-06-22T08:45:11;27.88;;;16.40;;
25905;SDS011;13713;52.552;13.204;2023-06-22T08:47:38;30.38;;;17.17;;
25905;SDS011;13713;52.552;13.204;2023-06-22T08:50:05;28.13;;;17.17;;
25905;SDS011;13713;52.552;13.204;2023-06-22T08:52:33;35.80;;;18.98;;
25905;SDS011;13713;52.552;13.204;2023-06-22T08:54:58;36.35;;;18.85;;
25905;SDS011;13713;52.552;13.204;2023-06-22T08:57:24;44.33;;;19.33;;
25905;SDS011;13713;52.552;13.204;2023-06-22T08:59:50;32.42;;;17.98;;
25905;SDS011;13713;52.552;13.204;2023-06-22T09:02:17;34.42;;;17.15;;
25905;SDS011;13713;52.552;13.204;2023-06-22T09:04:44;36.10;;;18.58;;
25905;SDS011;13713;52.552;13.204;2023-06-22T09:07:13;40.97;;;21.45;;
25905;SDS011;13713;52.552;13.204;2023-06-22T09:09:39;42.20;;;21.73;;
25905;SDS011;13713;52.552;13.204;2023-06-22T09:12:05;30.02;;;17.73;;
25905;SDS011;13713;52.552;13.204;2023-06-22T09:14:31;38.88;;;18.85;;
25905;SDS011;13713;52.552;13.204;2023-06-22T09:16:57;37.72;;;19.83;;
25905;SDS011;13713;52.552;13.204;2023-06-22T09:19:22;40.35;;;21.50;;
25905;SDS011;13713;52.552;13.204;2023-06-22T09:21:48;41.67;;;22.45;;
25905;SDS011;13713;52.552;13.204;2023-06-22T09:24:15;34.50;;;19.40;;
25905;SDS011;13713;52.552;13.204;2023-06-22T09:26:40;41.90;;;18.70;;
25905;SDS011;13713;52.552;13.204;2023-06-22T09:29:06;48.85;;;21.95;;
25905;SDS011;13713;52.552;13.204;2023-06-22T09:31:32;41.63;;;19.75;;
25905;SDS011;13713;52.552;13.204;2023-06-22T09:33:57;41.17;;;18.42;;
25905;SDS011;13713;52.552;13.204;2023-06-22T09:36:23;35.97;;;16.35;;
25905;SDS011;13713;52.552;13.204;2023-06-22T09:38:49;33.53;;;16.38;;
25905;SDS011;13713;52.552;13.204;2023-06-22T09:41:21;29.55;;;15.50;;
25905;SDS011;13713;52.552;13.204;2023-06-22T09:43:47;34.55;;;16.42;;
25905;SDS011;13713;52.552;13.204;2023-06-22T09:46:16;33.40;;;17.40;;
25905;SDS011;13713;52.552;13.204;2023-06-22T09:48:42;34.15;;;19.52;;
25905;SDS011;13713;52.552;13.204;2023-06-22T09:51:08;40.33;;;19.38;;
25905;SDS011;13713;52.552;13.204;2023-06-22T09:53:34;39.58;;;20.65;;
25905;SDS011;13713;52.552;13.204;2023-06-22T09:56:00;46.80;;;21.95;;
25905;SDS011;13713;52.552;13.204;2023-06-22T09:58:27;47.00;;;23.20;;
25905;SDS011;13713;52.552;13.204;2023-06-22T10:00:53;49.70;;;21.35;;
25905;SDS011;13713;52.552;13.204;2023-06-22T10:03:19;44.53;;;20.38;;
25905;SDS011;13713;52.552;13.204;2023-06-22T10:05:46;41.20;;;20.17;;
25905;SDS011;13713;52.552;13.204;2023-06-22T10:08:11;40.88;;;19.70;;
25905;SDS011;13713;52.552;13.204;2023-06-22T10:10:37;37.45;;;19.02;;
25905;SDS011;13713;52.552;13.204;2023-06-22T10:13:07;32.70;;;18.33;;
25905;SDS011;13713;52.552;13.204;2023-06-22T10:15:35;36.47;;;18.52;;
25905;SDS011;13713;52.552;13.204;2023-06-22T10:18:00;38.22;;;19.45;;
25905;SDS011;13713;52.552;13.204;2023-06-22T10:20:26;36.03;;;18.20;;
25905;SDS011;13713;52.552;13.204;2023-06-22T10:22:53;33.83;;;17.42;;
25905;SDS011;13713;52.552;13.204;2023-06-22T10:25:19;32.20;;;15.80;;
25905;SDS011;13713;52.552;13.204;2023-06-22T10:27:45;35.75;;;15.82;;
25905;SDS011;13713;52.552;13.204;2023-06-22T10:30:11;33.67;;;17.05;;
25905;SDS011;13713;52.552;13.204;2023-06-22T10:32:41;28.63;;;15.65;;
25905;SDS011;13713;52.552;13.204;2023-06-22T10:35:08;29.92;;;15.35;;
25905;SDS011;13713;52.552;13.204;2023-06-22T10:37:36;39.63;;;18.27;;
25905;SDS011;13713;52.552;13.204;2023-06-22T10:40:02;38.35;;;18.45;;
25905;SDS011;13713;52.552;13.204;2023-06-22T10:42:29;41.50;;;18.63;;
25905;SDS011;13713;52.552;13.204;2023-06-22T10:44:54;37.90;;;17.48;;
25905;SDS011;13713;52.552;13.204;2023-06-22T10:47:20;33.42;;;16.58;;
25905;SDS011;13713;52.552;13.204;2023-06-22T10:49:46;36.58;;;17.33;;
25905;SDS011;13713;52.552;13.204;2023-06-22T10:52:12;29.77;;;16.75;;
25905;SDS011;13713;52.552;13.204;2023-06-22T10:54:38;29.45;;;16.70;;
25905;SDS011;13713;52.552;13.204;2023-06-22T10:57:03;32.72;;;17.02;;
25905;SDS011;13713;52.552;13.204;2023-06-22T10:59:29;36.25;;;19.80;;
25905;SDS011;13713;52.552;13.204;2023-06-22T11:01:55;38.38;;;19.55;;
25905;SDS011;13713;52.552;13.204;2023-06-22T11:04:22;36.00;;;19.67;;
25905;SDS011;13713;52.552;13.204;2023-06-22T11:06:48;49.22;;;22.42;;
25905;SDS011;13713;52.552;13.204;2023-06-22T11:09:13;48.38;;;23.17;;
25905;SDS011;13713;52.552;13.204;2023-06-22T11:11:43;60.55;;;25.10;;
25905;SDS011;13713;52.552;13.204;2023-06-22T11:14:10;49.55;;;20.52;;
25905;SDS011;13713;52.552;13.204;2023-06-22T11:16:35;49.50;;;20.75;;
25905;SDS011;13713;52.552;13.204;2023-06-22T11:19:01;51.55;;;24.23;;
25905;SDS011;13713;52.552;13.204;2023-06-22T11:21:28;55.72;;;26.23;;
25905;SDS011;13713;52.552;13.204;2023-06-22T11:23:54;53.08;;;25.17;;
25905;SDS011;13713;52.552;13.204;2023-06-22T11:26:19;64.00;;;28.33;;
25905;SDS011;13713;52.552;13.204;2023-06-22T11:28:46;55.47;;;26.08;;
25905;SDS011;13713;52.552;13.204;2023-06-22T11:31:12;41.38;;;21.65;;
25905;SDS011;13713;52.552;13.204;2023-06-22T11:33:38;41.15;;;21.70;;
25905;SDS011;13713;52.552;13.204;2023-06-22T11:36:03;43.85;;;21.80;;
25905;SDS011;13713;52.552;13.204;2023-06-22T11:38:29;46.88;;;24.20;;
25905;SDS011;13713;52.552;13.204;2023-06-22T11:40:57;51.75;;;23.98;;
25905;SDS011;13713;52.552;13.204;2023-06-22T11:43:25;49.88;;;21.05;;
25905;SDS011;13713;52.552;13.204;2023-06-22T11:45:51;35.72;;;20.48;;
25905;SDS011;13713;52.552;13.204;2023-06-22T11:48:16;38.97;;;20.85;;
25905;SDS011;13713;52.552;13.204;2023-06-22T11:50:42;43.63;;;21.17;;
25905;SDS011;13713;52.552;13.204;2023-06-22T11:53:08;47.75;;;22.80;;
25905;SDS011;13713;52.552;13.204;2023-06-22T11:55:34;52.65;;;23.33;;
25905;SDS011;13713;52.552;13.204;2023-06-22T11:57:59;51.78;;;24.05;;
25905;SDS011;13713;52.552;13.204;2023-06-22T12:00:28;49.17;;;24.75;;
25905;SDS011;13713;52.552;13.204;2023-06-22T12:02:55;48.83;;;23.05;;
25905;SDS011;13713;52.552;13.204;2023-06-22T12:05:21;55.28;;;27.73;;
25905;SDS011;13713;52.552;13.204;2023-06-22T12:07:47;47.72;;;24.23;;
25905;SDS011;13713;52.552;13.204;2023-06-22T12:10:14;44.95;;;22.65;;
25905;SDS011;13713;52.552;13.204;2023-06-22T12:12:40;47.20;;;23.45;;
25905;SDS011;13713;52.552;13.204;2023-06-22T12:15:06;52.92;;;24.60;;
25905;SDS011;13713;52.552;13.204;2023-06-22T12:17:34;48.85;;;23.02;;
25905;SDS011;13713;52.552;13.204;2023-06-22T12:20:00;68.97;;;28.08;;
25905;SDS011;13713;52.552;13.204;2023-06-22T12:22:26;69.25;;;29.30;;
25905;SDS011;13713;52.552;13.204;2023-06-22T12:24:52;63.90;;;27.45;;
25905;SDS011;13713;52.552;13.204;2023-06-22T12:27:18;58.65;;;25.60;;
25905;SDS011;13713;52.552;13.204;2023-06-22T12:29:47;73.10;;;29.83;;
25905;SDS011;13713;52.552;13.204;2023-06-22T12:32:13;56.55;;;26.27;;
25905;SDS011;13713;52.552;13.204;2023-06-22T12:34:39;63.15;;;27.98;;
25905;SDS011;13713;52.552;13.204;2023-06-22T12:37:06;60.97;;;26.00;;
25905;SDS011;13713;52.552;13.204;2023-06-22T12:39:32;59.67;;;27.23;;
25905;SDS011;13713;52.552;13.204;2023-06-22T12:41:58;51.92;;;24.08;;
25905;SDS011;13713;52.552;13.204;2023-06-22T12:44:23;53.35;;;24.40;;
25905;SDS011;13713;52.552;13.204;2023-06-22T12:46:49;56.03;;;26.55;;
25905;SDS011;13713;52.552;13.204;2023-06-22T12:49:15;71.95;;;31.65;;
25905;SDS011;13713;52.552;13.204;2023-06-22T12:51:41;67.72;;;30.55;;
25905;SDS011;13713;52.552;13.204;2023-06-22T12:54:08;80.22;;;32.53;;
25905;SDS011;13713;52.552;13.204;2023-06-22T12:56:34;91.68;;;36.22;;
25905;SDS011;13713;52.552;13.204;2023-06-22T12:59:00;84.50;;;34.80;;
25905;SDS011;13713;52.552;13.204;2023-06-22T13:01:28;71.15;;;32.53;;
25905;SDS011;13713;52.552;13.204;2023-06-22T13:03:55;88.93;;;39.50;;
25905;SDS011;13713;52.552;13.204;2023-06-22T13:06:21;75.65;;;32.28;;
25905;SDS011;13713;52.552;13.204;2023-06-22T13:08:47;70.60;;;30.67;;
25905;SDS011;13713;52.552;13.204;2023-06-22T13:11:13;79.38;;;36.28;;
25905;SDS011;13713;52.552;13.204;2023-06-22T13:13:39;82.85;;;34.15;;
25905;SDS011;13713;52.552;13.204;2023-06-22T13:16:05;63.35;;;27.65;;
25905;SDS011;13713;52.552;13.204;2023-06-22T13:18:30;57.10;;;27.27;;
25905;SDS011;13713;52.552;13.204;2023-06-22T13:20:56;62.40;;;28.27;;
25905;SDS011;13713;52.552;13.204;2023-06-22T13:23:23;77.03;;;33.17;;
25905;SDS011;13713;52.552;13.204;2023-06-22T13:25:49;68.10;;;34.45;;
25905;SDS011;13713;52.552;13.204;2023-06-22T13:28:15;76.72;;;32.88;;
25905;SDS011;13713;52.552;13.204;2023-06-22T13:30:41;59.92;;;27.42;;
25905;SDS011;13713;52.552;13.204;2023-06-22T13:33:07;85.95;;;34.08;;
25905;SDS011;13713;52.552;13.204;2023-06-22T13:35:33;57.13;;;25.88;;
25905;SDS011;13713;52.552;13.204;2023-06-22T13:38:00;61.40;;;28.35;;
25905;SDS011;13713;52.552;13.204;2023-06-22T13:40:26;95.50;;;39.58;;
25905;SDS011;13713;52.552;13.204;2023-06-22T13:42:53;90.03;;;37.40;;
25905;SDS011;13713;52.552;13.204;2023-06-22T13:45:19;79.95;;;36.47;;
25905;SDS011;13713;52.552;13.204;2023-06-22T13:47:45;92.60;;;35.55;;
25905;SDS011;13713;52.552;13.204;2023-06-22T13:50:11;105.32;;;43.50;;
25905;SDS011;13713;52.552;13.204;2023-06-22T13:52:38;111.72;;;45.95;;
25905;SDS011;13713;52.552;13.204;2023-06-22T13:55:04;108.60;;;47.28;;
25905;SDS011;13713;52.552;13.204;2023-06-22T13:57:32;117.72;;;48.22;;
25905;SDS011;13713;52.552;13.204;2023-06-22T13:59:58;55.35;;;28.55;;
25905;SDS011;13713;52.552;13.204;2023-06-22T14:02:25;52.25;;;28.48;;
25905;SDS011;13713;52.552;13.204;2023-06-22T14:04:51;75.95;;;35.72;;
25905;SDS011;13713;52.552;13.204;2023-06-22T14:07:17;79.68;;;36.45;;
25905;SDS011;13713;52.552;13.204;2023-06-22T14:09:44;65.03;;;31.77;;
25905;SDS011;13713;52.552;13.204;2023-06-22T14:12:10;66.38;;;31.92;;
25905;SDS011;13713;52.552;13.204;2023-06-22T14:14:36;66.07;;;30.02;;
25905;SDS011;13713;52.552;13.204;2023-06-22T14:17:03;79.85;;;34.55;;
25905;SDS011;13713;52.552;13.204;2023-06-22T14:19:29;61.08;;;27.08;;